Puri Airport


Codes: AYPU/
Name: Puri Airport
City: Puri
Country: Papua New Guinea
Elevation: 6050 ft.

Photos at Puri Airport


   Photos courtesy of SpottingLog. You can add your own sightings and photos by signing up for a free trial today.



No photos found.

Weather at Puri Airport


Time (UTC)DescriptionTempratureWindCloud coverageVisibilityPressureHumidity
21-Feb-2024 03:00Light Rain17°C2 mph, W100%10000m1013hPa94%
21-Feb-2024 06:00Light Rain17°C2 mph, S100%10000m1013hPa93%
21-Feb-2024 09:00Light Rain16°C2 mph, SW100%10000m1014hPa96%
21-Feb-2024 12:00Light Rain15°C0 mph, E100%10000m1016hPa97%
21-Feb-2024 15:00Light Rain15°C2 mph, NW100%10000m1015hPa98%
21-Feb-2024 18:00Light Rain15°C2 mph, NW100%10000m1014hPa98%
21-Feb-2024 21:00Overcast Clouds15°C2 mph, NW100%10000m1016hPa96%
22-Feb-2024 00:00Overcast Clouds20°C2 mph, SW100%10000m1016hPa73%
22-Feb-2024 03:00Light Rain21°C4 mph, SW99%10000m1013hPa70%
22-Feb-2024 06:00Light Rain20°C4 mph, SW99%9083m1011hPa77%
22-Feb-2024 09:00Light Rain16°C0 mph, SE100%10000m1014hPa97%
22-Feb-2024 12:00Light Rain15°C2 mph, NW100%10000m1016hPa96%
22-Feb-2024 15:00Light Rain15°C2 mph, NW100%10000m1014hPa95%
22-Feb-2024 18:00Overcast Clouds15°C2 mph, NW100%10000m1014hPa96%
22-Feb-2024 21:00Overcast Clouds15°C2 mph, NW100%10000m1015hPa96%
23-Feb-2024 00:00Overcast Clouds20°C2 mph, SW100%10000m1015hPa75%
23-Feb-2024 03:00Light Rain23°C4 mph, SW93%10000m1011hPa61%
23-Feb-2024 06:00Light Rain21°C7 mph, SW92%10000m1010hPa76%
23-Feb-2024 09:00Light Rain16°C2 mph, SW69%10000m1014hPa96%
23-Feb-2024 12:00Light Rain15°C2 mph, NW76%10000m1016hPa98%
23-Feb-2024 15:00Light Rain15°C2 mph, NW100%10000m1013hPa98%
23-Feb-2024 18:00Overcast Clouds14°C2 mph, W100%10000m1013hPa98%
23-Feb-2024 21:00Overcast Clouds14°C2 mph, NW99%10000m1014hPa98%
24-Feb-2024 00:00Overcast Clouds21°C2 mph, SW99%10000m1013hPa72%
24-Feb-2024 03:00Light Rain20°C2 mph, S100%9115m1011hPa82%
24-Feb-2024 06:00Light Rain19°C2 mph, SW100%10000m1009hPa89%
24-Feb-2024 09:00Light Rain16°C2 mph, W100%9313m1012hPa98%
24-Feb-2024 12:00Moderate Rain16°C2 mph, NW100%10000m1014hPa98%
24-Feb-2024 15:00Light Rain15°C2 mph, W100%10000m1013hPa98%
24-Feb-2024 18:00Light Rain15°C2 mph, NW100%10000m1012hPa98%
24-Feb-2024 21:00Light Rain15°C2 mph, N100%10000m1013hPa99%
25-Feb-2024 00:00Light Rain17°C0 mph, SW100%10000m1013hPa95%
25-Feb-2024 03:00Light Rain18°C2 mph, S100%10000m1011hPa94%
25-Feb-2024 06:00Moderate Rain17°C2 mph, SW100%8099m1010hPa98%
25-Feb-2024 09:00Moderate Rain16°C0 mph, S100%1417m1012hPa100%
25-Feb-2024 12:00Heavy Intensity Rain16°C0 mph, NW100%1215m1013hPa99%
25-Feb-2024 15:00Heavy Intensity Rain15°C2 mph, NW100%10000m1013hPa99%
25-Feb-2024 18:00Light Rain15°C2 mph, NW100%10000m1012hPa98%
25-Feb-2024 21:00Overcast Clouds14°C2 mph, N100%10000m1013hPa96%
26-Feb-2024 00:00Overcast Clouds18°C2 mph, SW100%10000m1014hPa79%